sensor_id;sensor_type;location;lat;lon;timestamp;pressure;altitude;pressure_sealevel;temperature;humidity
49515;BME280;35415;47.870;16.058;2022-10-31T00:00:44;97863.25;;;10.48;94.64
49515;BME280;35415;47.870;16.058;2022-10-31T00:03:12;97868.88;;;10.47;94.50
49515;BME280;35415;47.870;16.058;2022-10-31T00:05:41;97864.81;;;10.44;94.31
49515;BME280;35415;47.870;16.058;2022-10-31T00:08:10;97866.13;;;10.42;94.13
49515;BME280;35415;47.870;16.058;2022-10-31T00:10:38;97869.03;;;10.40;94.19
49515;BME280;35415;47.870;16.058;2022-10-31T00:13:05;97871.72;;;10.40;94.10
49515;BME280;35415;47.870;16.058;2022-10-31T00:15:33;97866.06;;;10.37;94.05
49515;BME280;35415;47.870;16.058;2022-10-31T00:18:01;97863.88;;;10.34;94.56
49515;BME280;35415;47.870;16.058;2022-10-31T00:20:28;97819.72;;;10.08;93.86
49515;BME280;35415;47.870;16.058;2022-10-31T00:22:57;97803.41;;;9.92;94.17
49515;BME280;35415;47.870;16.058;2022-10-31T00:25:27;97865.38;;;10.24;94.14
49515;BME280;35415;47.870;16.058;2022-10-31T00:27:55;97866.91;;;10.20;94.25
49515;BME280;35415;47.870;16.058;2022-10-31T00:30:22;97870.09;;;10.17;94.37
49515;BME280;35415;47.870;16.058;2022-10-31T00:32:49;97863.59;;;10.13;94.23
49515;BME280;35415;47.870;16.058;2022-10-31T00:35:16;97865.72;;;10.11;94.48
49515;BME280;35415;47.870;16.058;2022-10-31T00:37:43;97866.44;;;10.07;94.69
49515;BME280;35415;47.870;16.058;2022-10-31T00:40:11;97867.22;;;10.02;94.74
49515;BME280;35415;47.870;16.058;2022-10-31T00:42:41;97867.47;;;10.01;95.10
49515;BME280;35415;47.870;16.058;2022-10-31T00:45:09;97867.72;;;9.99;95.04
49515;BME280;35415;47.870;16.058;2022-10-31T00:47:37;97853.00;;;9.85;94.78
49515;BME280;35415;47.870;16.058;2022-10-31T00:50:05;97870.09;;;9.95;94.81
49515;BME280;35415;47.870;16.058;2022-10-31T00:52:32;97872.22;;;9.93;95.25
49515;BME280;35415;47.870;16.058;2022-10-31T00:54:59;97866.28;;;9.91;94.98
49515;BME280;35415;47.870;16.058;2022-10-31T00:57:26;97862.94;;;9.84;95.21
49515;BME280;35415;47.870;16.058;2022-10-31T00:59:55;97878.81;;;9.86;95.42
49515;BME280;35415;47.870;16.058;2022-10-31T01:02:22;97877.19;;;9.85;95.05
49515;BME280;35415;47.870;16.058;2022-10-31T01:04:49;97878.50;;;9.82;95.16
49515;BME280;35415;47.870;16.058;2022-10-31T01:07:16;97878.19;;;9.79;95.29
49515;BME280;35415;47.870;16.058;2022-10-31T01:09:43;97874.13;;;9.76;95.50
49515;BME280;35415;47.870;16.058;2022-10-31T01:12:10;97870.78;;;9.69;95.52
49515;BME280;35415;47.870;16.058;2022-10-31T01:14:37;97871.84;;;9.68;95.52
49515;BME280;35415;47.870;16.058;2022-10-31T01:17:05;97865.09;;;9.65;95.75
49515;BME280;35415;47.870;16.058;2022-10-31T01:19:32;97876.97;;;9.70;96.00
49515;BME280;35415;47.870;16.058;2022-10-31T01:21:59;97876.16;;;9.69;95.81
49515;BME280;35415;47.870;16.058;2022-10-31T01:24:26;97872.66;;;9.69;96.06
49515;BME280;35415;47.870;16.058;2022-10-31T01:26:53;97865.91;;;9.66;95.83
49515;BME280;35415;47.870;16.058;2022-10-31T01:29:20;97873.16;;;9.65;96.01
49515;BME280;35415;47.870;16.058;2022-10-31T01:31:50;97867.78;;;9.65;96.15
49515;BME280;35415;47.870;16.058;2022-10-31T01:34:18;97858.59;;;9.61;96.34
49515;BME280;35415;47.870;16.058;2022-10-31T01:36:45;97859.97;;;9.64;96.41
49515;BME280;35415;47.870;16.058;2022-10-31T01:39:17;97856.47;;;9.63;96.26
49515;BME280;35415;47.870;16.058;2022-10-31T01:41:47;97861.84;;;9.63;96.46
49515;BME280;35415;47.870;16.058;2022-10-31T01:44:50;97859.72;;;9.65;96.84
49515;BME280;35415;47.870;16.058;2022-10-31T01:47:21;97854.28;;;9.60;96.82
49515;BME280;35415;47.870;16.058;2022-10-31T01:49:54;97861.59;;;9.65;96.79
49515;BME280;35415;47.870;16.058;2022-10-31T01:52:24;97861.59;;;9.65;97.11
49515;BME280;35415;47.870;16.058;2022-10-31T01:54:55;97834.50;;;9.50;96.88
49515;BME280;35415;47.870;16.058;2022-10-31T01:57:25;97863.47;;;9.64;96.93
49515;BME280;35415;47.870;16.058;2022-10-31T01:59:56;97854.53;;;9.59;97.07
49515;BME280;35415;47.870;16.058;2022-10-31T02:02:25;97861.03;;;9.63;97.09
49515;BME280;35415;47.870;16.058;2022-10-31T02:04:56;97861.03;;;9.63;97.39
49515;BME280;35415;47.870;16.058;2022-10-31T02:07:26;97860.22;;;9.62;97.58
49515;BME280;35415;47.870;16.058;2022-10-31T02:09:55;97862.66;;;9.64;97.67
49515;BME280;35415;47.870;16.058;2022-10-31T02:12:24;97863.47;;;9.64;98.20
49515;BME280;35415;47.870;16.058;2022-10-31T02:14:51;97864.84;;;9.67;97.79
49515;BME280;35415;47.870;16.058;2022-10-31T02:17:18;97862.16;;;9.67;97.79
49515;BME280;35415;47.870;16.058;2022-10-31T02:19:51;97874.53;;;9.68;97.47
49515;BME280;35415;47.870;16.058;2022-10-31T02:22:26;97859.97;;;9.64;97.59
49515;BME280;35415;47.870;16.058;2022-10-31T02:25:08;97865.16;;;9.71;97.73
49515;BME280;35415;47.870;16.058;2022-10-31T02:27:51;97869.22;;;9.73;97.19
49515;BME280;35415;47.870;16.058;2022-10-31T02:30:29;97853.28;;;9.67;97.55
49515;BME280;35415;47.870;16.058;2022-10-31T02:33:14;97867.34;;;9.74;97.19
49515;BME280;35415;47.870;16.058;2022-10-31T02:35:53;97863.53;;;9.70;97.10
49515;BME280;35415;47.870;16.058;2022-10-31T02:38:29;97864.09;;;9.72;97.67
49515;BME280;35415;47.870;16.058;2022-10-31T02:41:07;97864.91;;;9.72;97.25
49515;BME280;35415;47.870;16.058;2022-10-31T02:43:44;97872.16;;;9.72;97.16
49515;BME280;35415;47.870;16.058;2022-10-31T02:46:21;97871.34;;;9.71;97.00
49515;BME280;35415;47.870;16.058;2022-10-31T02:48:55;97875.91;;;9.71;97.39
49515;BME280;35415;47.870;16.058;2022-10-31T02:51:24;97876.16;;;9.69;97.47
49515;BME280;35415;47.870;16.058;2022-10-31T02:53:52;97878.28;;;9.67;97.94
49515;BME280;35415;47.870;16.058;2022-10-31T02:56:19;97867.16;;;9.58;97.54
49515;BME280;35415;47.870;16.058;2022-10-31T02:58:49;97883.91;;;9.65;97.43
49515;BME280;35415;47.870;16.058;2022-10-31T03:01:33;97880.41;;;9.65;97.40
49515;BME280;35415;47.870;16.058;2022-10-31T03:04:19;97875.03;;;9.65;97.36
49515;BME280;35415;47.870;16.058;2022-10-31T03:06:55;97884.41;;;9.62;97.45
49515;BME280;35415;47.870;16.058;2022-10-31T03:09:25;97883.41;;;9.69;96.47
49515;BME280;35415;47.870;16.058;2022-10-31T03:11:58;97872.03;;;9.61;97.29
49515;BME280;35415;47.870;16.058;2022-10-31T03:14:33;97876.03;;;9.59;97.54
49515;BME280;35415;47.870;16.058;2022-10-31T03:17:06;97840.72;;;9.33;97.62
49515;BME280;35415;47.870;16.058;2022-10-31T03:19:39;97873.16;;;9.49;97.38
49515;BME280;35415;47.870;16.058;2022-10-31T03:22:12;97876.34;;;9.46;98.04
49515;BME280;35415;47.870;16.058;2022-10-31T03:24:43;97896.84;;;9.52;98.11
49515;BME280;35415;47.870;16.058;2022-10-31T03:27:14;97890.09;;;9.49;97.96
49515;BME280;35415;47.870;16.058;2022-10-31T03:29:44;97895.47;;;9.49;98.21
49515;BME280;35415;47.870;16.058;2022-10-31T03:32:14;97887.91;;;9.46;98.37
49515;BME280;35415;47.870;16.058;2022-10-31T03:34:45;97884.66;;;9.44;98.46
49515;BME280;35415;47.870;16.058;2022-10-31T03:37:16;97892.72;;;9.44;98.73
49515;BME280;35415;47.870;16.058;2022-10-31T03:39:46;97890.53;;;9.41;98.35
49515;BME280;35415;47.870;16.058;2022-10-31T03:42:16;97894.72;;;9.37;98.37
49515;BME280;35415;47.870;16.058;2022-10-31T03:44:49;97887.41;;;9.32;98.77
49515;BME280;35415;47.870;16.058;2022-10-31T03:47:18;97894.22;;;9.40;97.97
49515;BME280;35415;47.870;16.058;2022-10-31T03:49:47;97883.34;;;9.30;98.73
49515;BME280;35415;47.870;16.058;2022-10-31T03:52:19;97888.41;;;9.26;98.90
49515;BME280;35415;47.870;16.058;2022-10-31T03:54:53;97887.03;;;9.24;98.54
49515;BME280;35415;47.870;16.058;2022-10-31T03:57:25;97883.97;;;9.20;98.51
49515;BME280;35415;47.870;16.058;2022-10-31T03:59:57;97882.59;;;9.18;98.42
49515;BME280;35415;47.870;16.058;2022-10-31T04:02:30;97881.97;;;9.11;98.41
49515;BME280;35415;47.870;16.058;2022-10-31T04:05:00;97888.84;;;9.07;98.16
49515;BME280;35415;47.870;16.058;2022-10-31T04:07:31;97883.16;;;9.03;98.30
49515;BME280;35415;47.870;16.058;2022-10-31T04:10:02;97891.13;;;8.98;97.94
49515;BME280;35415;47.870;16.058;2022-10-31T04:12:32;97884.38;;;8.95;97.79
49515;BME280;35415;47.870;16.058;2022-10-31T04:15:02;97888.59;;;8.91;97.94
49515;BME280;35415;47.870;16.058;2022-10-31T04:17:34;97882.88;;;8.88;97.60
49515;BME280;35415;47.870;16.058;2022-10-31T04:20:06;97885.81;;;8.86;97.67
49515;BME280;35415;47.870;16.058;2022-10-31T04:22:33;97883.63;;;8.83;98.05
49515;BME280;35415;47.870;16.058;2022-10-31T04:25:00;97889.47;;;8.80;97.67
49515;BME280;35415;47.870;16.058;2022-10-31T04:27:27;97863.91;;;8.61;97.19
49515;BME280;35415;47.870;16.058;2022-10-31T04:29:54;97886.34;;;8.71;97.04
49515;BME280;35415;47.870;16.058;2022-10-31T04:32:21;97877.16;;;8.67;96.58
49515;BME280;35415;47.870;16.058;2022-10-31T04:34:48;97884.63;;;8.65;96.69
49515;BME280;35415;47.870;16.058;2022-10-31T04:37:17;97894.22;;;8.61;96.37
49515;BME280;35415;47.870;16.058;2022-10-31T04:39:44;97887.09;;;8.55;96.89
49515;BME280;35415;47.870;16.058;2022-10-31T04:42:11;97890.50;;;8.51;97.08
49515;BME280;35415;47.870;16.058;2022-10-31T04:44:38;97897.19;;;8.48;97.34
49515;BME280;35415;47.870;16.058;2022-10-31T04:47:05;97894.16;;;8.44;97.56
49515;BME280;35415;47.870;16.058;2022-10-31T04:49:32;97893.59;;;8.42;97.69
49515;BME280;35415;47.870;16.058;2022-10-31T04:51:59;97896.16;;;8.37;97.66
49515;BME280;35415;47.870;16.058;2022-10-31T04:54:28;97906.63;;;8.39;97.82
49515;BME280;35415;47.870;16.058;2022-10-31T04:56:55;97908.50;;;8.38;98.02
49515;BME280;35415;47.870;16.058;2022-10-31T04:59:23;97908.75;;;8.37;97.83
49515;BME280;35415;47.870;16.058;2022-10-31T05:01:51;97908.16;;;8.35;98.05
49515;BME280;35415;47.870;16.058;2022-10-31T05:04:18;97908.38;;;8.33;98.22
49515;BME280;35415;47.870;16.058;2022-10-31T05:06:45;97910.25;;;8.33;97.83
49515;BME280;35415;47.870;16.058;2022-10-31T05:09:12;97894.88;;;8.28;97.84
49515;BME280;35415;47.870;16.058;2022-10-31T05:11:40;97902.09;;;8.28;97.52
49515;BME280;35415;47.870;16.058;2022-10-31T05:14:07;97904.78;;;8.28;97.14
49515;BME280;35415;47.870;16.058;2022-10-31T05:16:34;97895.59;;;8.24;97.62
49515;BME280;35415;47.870;16.058;2022-10-31T05:19:02;97898.72;;;8.21;97.40
49515;BME280;35415;47.870;16.058;2022-10-31T05:21:28;97905.03;;;8.14;97.44
49515;BME280;35415;47.870;16.058;2022-10-31T05:23:56;97902.59;;;8.13;97.48
49515;BME280;35415;47.870;16.058;2022-10-31T05:26:23;97901.91;;;8.06;97.45
49515;BME280;35415;47.870;16.058;2022-10-31T05:28:51;97905.28;;;8.01;97.97
49515;BME280;35415;47.870;16.058;2022-10-31T05:31:18;97892.50;;;7.92;97.75
49515;BME280;35415;47.870;16.058;2022-10-31T05:33:45;97900.78;;;7.90;98.04
49515;BME280;35415;47.870;16.058;2022-10-31T05:36:12;97906.72;;;7.92;98.02
49515;BME280;35415;47.870;16.058;2022-10-31T05:38:40;97912.31;;;7.91;97.87
49515;BME280;35415;47.870;16.058;2022-10-31T05:41:07;97908.44;;;7.87;97.98
49515;BME280;35415;47.870;16.058;2022-10-31T05:43:35;97918.81;;;7.83;98.06
49515;BME280;35415;47.870;16.058;2022-10-31T05:46:04;97909.63;;;7.79;98.01
49515;BME280;35415;47.870;16.058;2022-10-31T05:48:31;97908.91;;;7.72;97.93
49515;BME280;35415;47.870;16.058;2022-10-31T05:50:58;97920.81;;;7.76;97.98
49515;BME280;35415;47.870;16.058;2022-10-31T05:53:25;97896.22;;;7.55;98.31
49515;BME280;35415;47.870;16.058;2022-10-31T05:55:52;97926.63;;;7.73;98.58
49515;BME280;35415;47.870;16.058;2022-10-31T05:58:19;97924.41;;;7.70;98.25
49515;BME280;35415;47.870;16.058;2022-10-31T06:00:46;97926.25;;;7.69;98.27
49515;BME280;35415;47.870;16.058;2022-10-31T06:03:14;97928.13;;;7.69;98.42
49515;BME280;35415;47.870;16.058;2022-10-31T06:05:41;97923.00;;;7.67;98.73
49515;BME280;35415;47.870;16.058;2022-10-31T06:08:08;97928.34;;;7.67;98.46
49515;BME280;35415;47.870;16.058;2022-10-31T06:10:35;97924.28;;;7.65;98.75
49515;BME280;35415;47.870;16.058;2022-10-31T06:13:02;97936.88;;;7.64;98.59
49515;BME280;35415;47.870;16.058;2022-10-31T06:15:31;97935.22;;;7.63;98.66
49515;BME280;35415;47.870;16.058;2022-10-31T06:18:00;97933.38;;;7.64;98.96
49515;BME280;35415;47.870;16.058;2022-10-31T06:20:29;97906.81;;;7.50;99.10
49515;BME280;35415;47.870;16.058;2022-10-31T06:22:56;97935.00;;;7.65;99.09
49515;BME280;35415;47.870;16.058;2022-10-31T06:25:23;97931.28;;;7.66;99.46
49515;BME280;35415;47.870;16.058;2022-10-31T06:27:50;97907.97;;;7.54;99.65
49515;BME280;35415;47.870;16.058;2022-10-31T06:30:17;97938.84;;;7.69;99.98
49515;BME280;35415;47.870;16.058;2022-10-31T06:32:44;97932.44;;;7.70;99.89
49515;BME280;35415;47.870;16.058;2022-10-31T06:35:12;97940.84;;;7.73;99.98
49515;BME280;35415;47.870;16.058;2022-10-31T06:37:40;97935.25;;;7.75;99.94
49515;BME280;35415;47.870;16.058;2022-10-31T06:40:08;97941.19;;;7.77;100.00
49515;BME280;35415;47.870;16.058;2022-10-31T06:42:36;97941.75;;;7.79;100.00
49515;BME280;35415;47.870;16.058;2022-10-31T06:45:03;97950.13;;;7.82;100.00
49515;BME280;35415;47.870;16.058;2022-10-31T06:47:31;97920.78;;;7.64;100.00
49515;BME280;35415;47.870;16.058;2022-10-31T06:49:58;97952.09;;;7.87;100.00
49515;BME280;35415;47.870;16.058;2022-10-31T06:52:25;97955.97;;;7.91;100.00
49515;BME280;35415;47.870;16.058;2022-10-31T06:54:54;97958.19;;;7.94;100.00
49515;BME280;35415;47.870;16.058;2022-10-31T06:57:21;97951.19;;;7.93;100.00
49515;BME280;35415;47.870;16.058;2022-10-31T06:59:48;97966.91;;;8.01;100.00
49515;BME280;35415;47.870;16.058;2022-10-31T07:02:15;97969.72;;;8.06;100.00
49515;BME280;35415;47.870;16.058;2022-10-31T07:04:42;97960.97;;;8.11;100.00
49515;BME280;35415;47.870;16.058;2022-10-31T07:07:09;97961.06;;;8.16;100.00
49515;BME280;35415;47.870;16.058;2022-10-31T07:09:36;97965.97;;;8.19;100.00
49515;BME280;35415;47.870;16.058;2022-10-31T07:12:05;97950.22;;;8.23;100.00
49515;BME280;35415;47.870;16.058;2022-10-31T07:14:32;97946.38;;;8.19;100.00
49515;BME280;35415;47.870;16.058;2022-10-31T07:16:59;97910.53;;;7.96;100.00
49515;BME280;35415;47.870;16.058;2022-10-31T07:19:27;97905.44;;;7.95;100.00
49515;BME280;35415;47.870;16.058;2022-10-31T07:21:54;97966.41;;;8.39;100.00
49515;BME280;35415;47.870;16.058;2022-10-31T07:24:21;97888.28;;;7.96;100.00
49515;BME280;35415;47.870;16.058;2022-10-31T07:26:50;97965.25;;;8.47;100.00
49515;BME280;35415;47.870;16.058;2022-10-31T07:29:18;97968.03;;;8.52;100.00
49515;BME280;35415;47.870;16.058;2022-10-31T07:31:46;97973.72;;;8.56;100.00
49515;BME280;35415;47.870;16.058;2022-10-31T07:34:13;97973.03;;;8.60;100.00
49515;BME280;35415;47.870;16.058;2022-10-31T07:36:40;97976.88;;;8.64;100.00
49515;BME280;35415;47.870;16.058;2022-10-31T07:39:07;97969.97;;;8.68;100.00
49515;BME280;35415;47.870;16.058;2022-10-31T07:41:34;97974.63;;;8.73;100.00
49515;BME280;35415;47.870;16.058;2022-10-31T07:44:03;97974.97;;;8.77;100.00
49515;BME280;35415;47.870;16.058;2022-10-31T07:46:32;97970.50;;;8.82;100.00
49515;BME280;35415;47.870;16.058;2022-10-31T07:48:59;97974.59;;;8.85;100.00
49515;BME280;35415;47.870;16.058;2022-10-31T07:51:27;97963.94;;;8.90;100.00
49515;BME280;35415;47.870;16.058;2022-10-31T07:53:54;97959.63;;;8.89;100.00
49515;BME280;35415;47.870;16.058;2022-10-31T07:56:21;97967.31;;;8.97;100.00
49515;BME280;35415;47.870;16.058;2022-10-31T07:58:48;97964.72;;;9.02;100.00
49515;BME280;35415;47.870;16.058;2022-10-31T08:01:15;97897.72;;;8.62;100.00
49515;BME280;35415;47.870;16.058;2022-10-31T08:03:44;97968.91;;;9.10;100.00
49515;BME280;35415;47.870;16.058;2022-10-31T08:06:11;97953.84;;;9.09;100.00
49515;BME280;35415;47.870;16.058;2022-10-31T08:08:38;97963.94;;;9.18;100.00
49515;BME280;35415;47.870;16.058;2022-10-31T08:11:05;97877.47;;;8.71;100.00
49515;BME280;35415;47.870;16.058;2022-10-31T08:13:33;97956.31;;;9.27;100.00
49515;BME280;35415;47.870;16.058;2022-10-31T08:16:00;97959.16;;;9.37;100.00
49515;BME280;35415;47.870;16.058;2022-10-31T08:18:29;97954.16;;;9.41;100.00
49515;BME280;35415;47.870;16.058;2022-10-31T08:21:00;97933.06;;;9.32;100.00
49515;BME280;35415;47.870;16.058;2022-10-31T08:23:27;97900.66;;;9.22;100.00
49515;BME280;35415;47.870;16.058;2022-10-31T08:25:55;97903.19;;;9.29;100.00
49515;BME280;35415;47.870;16.058;2022-10-31T08:28:23;97940.00;;;9.62;100.00
49515;BME280;35415;47.870;16.058;2022-10-31T08:30:53;97935.75;;;9.66;100.00
49515;BME280;35415;47.870;16.058;2022-10-31T08:33:20;97855.63;;;9.24;100.00
49515;BME280;35415;47.870;16.058;2022-10-31T08:35:47;97898.22;;;9.54;100.00
49515;BME280;35415;47.870;16.058;2022-10-31T08:38:16;97946.16;;;9.96;100.00
49515;BME280;35415;47.870;16.058;2022-10-31T08:40:47;97941.25;;;10.10;100.00
49515;BME280;35415;47.870;16.058;2022-10-31T08:43:16;97908.91;;;10.05;100.00
49515;BME280;35415;47.870;16.058;2022-10-31T08:45:47;97945.91;;;10.36;100.00
49515;BME280;35415;47.870;16.058;2022-10-31T08:48:16;97909.03;;;10.32;100.00
49515;BME280;35415;47.870;16.058;2022-10-31T08:50:44;97861.72;;;10.14;100.00
49515;BME280;35415;47.870;16.058;2022-10-31T08:53:14;97891.00;;;10.54;100.00
49515;BME280;35415;47.870;16.058;2022-10-31T08:55:44;97930.75;;;10.96;100.00
49515;BME280;35415;47.870;16.058;2022-10-31T08:58:13;97930.91;;;11.11;100.00
49515;BME280;35415;47.870;16.058;2022-10-31T09:00:42;97929.66;;;11.24;100.00
49515;BME280;35415;47.870;16.058;2022-10-31T09:03:10;97928.72;;;11.40;100.00
49515;BME280;35415;47.870;16.058;2022-10-31T09:05:38;97883.13;;;11.28;100.00
49515;BME280;35415;47.870;16.058;2022-10-31T09:08:06;97929.53;;;11.72;100.00
49515;BME280;35415;47.870;16.058;2022-10-31T09:10:35;97926.44;;;11.91;100.00
49515;BME280;35415;47.870;16.058;2022-10-31T09:13:06;97915.47;;;11.97;100.00
49515;BME280;35415;47.870;16.058;2022-10-31T09:15:35;97915.03;;;12.16;100.00
49515;BME280;35415;47.870;16.058;2022-10-31T09:18:04;97922.41;;;12.35;100.00
49515;BME280;35415;47.870;16.058;2022-10-31T09:20:32;97923.56;;;12.50;100.00
49515;BME280;35415;47.870;16.058;2022-10-31T09:23:01;97933.06;;;12.68;100.00
49515;BME280;35415;47.870;16.058;2022-10-31T09:25:28;97924.22;;;12.82;100.00
49515;BME280;35415;47.870;16.058;2022-10-31T09:27:56;97900.19;;;12.81;100.00
49515;BME280;35415;47.870;16.058;2022-10-31T09:30:27;97912.38;;;13.09;100.00
49515;BME280;35415;47.870;16.058;2022-10-31T09:32:55;97919.47;;;13.30;99.96
49515;BME280;35415;47.870;16.058;2022-10-31T09:35:23;97880.81;;;13.14;98.63
49515;BME280;35415;47.870;16.058;2022-10-31T09:37:54;97887.84;;;13.36;98.45
49515;BME280;35415;47.870;16.058;2022-10-31T09:40:21;97918.41;;;13.67;97.42
49515;BME280;35415;47.870;16.058;2022-10-31T09:42:55;97922.97;;;13.87;97.68
49515;BME280;35415;47.870;16.058;2022-10-31T09:45:30;97885.94;;;13.77;96.79
49515;BME280;35415;47.870;16.058;2022-10-31T09:48:13;97925.91;;;14.15;97.09
49515;BME280;35415;47.870;16.058;2022-10-31T09:50:46;97916.41;;;14.28;96.56
49515;BME280;35415;47.870;16.058;2022-10-31T09:53:23;97920.13;;;14.42;96.11
49515;BME280;35415;47.870;16.058;2022-10-31T09:55:51;97920.66;;;14.55;95.36
49515;BME280;35415;47.870;16.058;2022-10-31T09:58:20;97911.94;;;14.68;94.97
49515;BME280;35415;47.870;16.058;2022-10-31T10:00:52;97920.28;;;14.82;94.28
49515;BME280;35415;47.870;16.058;2022-10-31T10:03:30;97912.38;;;14.95;94.47
49515;BME280;35415;47.870;16.058;2022-10-31T10:06:06;97908.19;;;15.08;93.24
49515;BME280;35415;47.870;16.058;2022-10-31T10:08:36;97906.78;;;15.21;92.56
49515;BME280;35415;47.870;16.058;2022-10-31T10:11:14;97886.72;;;15.22;92.23
49515;BME280;35415;47.870;16.058;2022-10-31T10:13:57;97901.19;;;15.46;91.68
49515;BME280;35415;47.870;16.058;2022-10-31T10:16:42;97903.25;;;15.59;91.03
49515;BME280;35415;47.870;16.058;2022-10-31T10:19:22;97905.81;;;15.75;90.71
49515;BME280;35415;47.870;16.058;2022-10-31T10:21:58;97899.50;;;15.84;89.84
49515;BME280;35415;47.870;16.058;2022-10-31T10:24:37;97904.56;;;15.96;89.29
49515;BME280;35415;47.870;16.058;2022-10-31T10:27:13;97909.28;;;16.09;88.97
49515;BME280;35415;47.870;16.058;2022-10-31T10:29:47;97905.44;;;16.15;87.31
49515;BME280;35415;47.870;16.058;2022-10-31T10:32:23;97900.69;;;16.26;87.01
49515;BME280;35415;47.870;16.058;2022-10-31T10:34:53;97886.00;;;16.32;86.89
49515;BME280;35415;47.870;16.058;2022-10-31T10:37:26;97893.53;;;16.35;86.46
49515;BME280;35415;47.870;16.058;2022-10-31T10:40:06;97896.09;;;16.50;85.97
49515;BME280;35415;47.870;16.058;2022-10-31T10:42:35;97894.31;;;16.60;86.24
49515;BME280;35415;47.870;16.058;2022-10-31T10:45:20;97891.81;;;16.68;85.80
49515;BME280;35415;47.870;16.058;2022-10-31T10:48:15;97891.97;;;16.77;85.76
49515;BME280;35415;47.870;16.058;2022-10-31T10:50:47;97884.56;;;16.82;84.82
49515;BME280;35415;47.870;16.058;2022-10-31T10:53:30;97881.47;;;16.89;85.06
49515;BME280;35415;47.870;16.058;2022-10-31T10:56:12;97883.75;;;17.01;85.01
49515;BME280;35415;47.870;16.058;2022-10-31T10:58:41;97892.66;;;17.06;83.93
49515;BME280;35415;47.870;16.058;2022-10-31T11:01:11;97876.84;;;17.08;82.98
49515;BME280;35415;47.870;16.058;2022-10-31T11:03:41;97877.66;;;17.09;83.39
49515;BME280;35415;47.870;16.058;2022-10-31T11:06:17;97876.50;;;17.15;83.22
49515;BME280;35415;47.870;16.058;2022-10-31T11:08:51;97883.59;;;17.30;82.19
49515;BME280;35415;47.870;16.058;2022-10-31T11:11:24;97832.72;;;16.98;82.16
49515;BME280;35415;47.870;16.058;2022-10-31T11:13:59;97887.78;;;17.41;82.07
49515;BME280;35415;47.870;16.058;2022-10-31T11:16:32;97860.75;;;17.31;81.93
49515;BME280;35415;47.870;16.058;2022-10-31T11:19:12;97885.59;;;17.57;84.02
49515;BME280;35415;47.870;16.058;2022-10-31T11:21:44;97879.88;;;17.58;81.21
49515;BME280;35415;47.870;16.058;2022-10-31T11:24:16;97864.16;;;17.55;81.78
49515;BME280;35415;47.870;16.058;2022-10-31T11:26:47;97880.31;;;17.65;80.08
49515;BME280;35415;47.870;16.058;2022-10-31T11:29:17;97873.41;;;17.73;79.59
49515;BME280;35415;47.870;16.058;2022-10-31T11:31:50;97858.19;;;17.72;79.82
49515;BME280;35415;47.870;16.058;2022-10-31T11:34:27;97874.84;;;17.84;79.82
49515;BME280;35415;47.870;16.058;2022-10-31T11:37:01;97868.00;;;17.87;78.51
49515;BME280;35415;47.870;16.058;2022-10-31T11:39:28;97851.16;;;17.85;79.47
49515;BME280;35415;47.870;16.058;2022-10-31T11:42:00;97865.06;;;17.97;78.94
49515;BME280;35415;47.870;16.058;2022-10-31T11:44:29;97849.25;;;17.99;78.86
49515;BME280;35415;47.870;16.058;2022-10-31T11:46:59;97859.75;;;18.06;77.47
49515;BME280;35415;47.870;16.058;2022-10-31T11:49:31;97822.72;;;17.91;78.45
49515;BME280;35415;47.870;16.058;2022-10-31T11:52:03;97794.09;;;17.80;77.85
49515;BME280;35415;47.870;16.058;2022-10-31T11:54:34;97839.88;;;18.19;78.04
49515;BME280;35415;47.870;16.058;2022-10-31T11:57:05;97858.53;;;18.25;77.16
49515;BME280;35415;47.870;16.058;2022-10-31T11:59:34;97819.22;;;18.04;76.24
49515;BME280;35415;47.870;16.058;2022-10-31T12:02:01;97790.47;;;17.84;76.39
49515;BME280;35415;47.870;16.058;2022-10-31T12:04:40;97792.59;;;17.87;76.11
49515;BME280;35415;47.870;16.058;2022-10-31T12:07:12;97808.63;;;17.89;75.17
49515;BME280;35415;47.870;16.058;2022-10-31T12:12:41;97803.25;;;17.70;75.59
49515;BME280;35415;47.870;16.058;2022-10-31T12:15:31;97818.56;;;17.80;76.05
49515;BME280;35415;47.870;16.058;2022-10-31T12:18:25;97844.91;;;17.84;76.22
49515;BME280;35415;47.870;16.058;2022-10-31T12:21:06;97828.69;;;17.60;76.05
49515;BME280;35415;47.870;16.058;2022-10-31T12:23:42;97789.41;;;17.20;76.19
49515;BME280;35415;47.870;16.058;2022-10-31T12:26:21;97795.91;;;17.05;76.61
49515;BME280;35415;47.870;16.058;2022-10-31T12:29:07;97815.09;;;17.14;77.59
49515;BME280;35415;47.870;16.058;2022-10-31T12:31:47;97828.44;;;17.10;77.81
49515;BME280;35415;47.870;16.058;2022-10-31T12:34:37;97837.69;;;17.09;78.58
49515;BME280;35415;47.870;16.058;2022-10-31T12:37:18;97832.94;;;17.01;78.85
49515;BME280;35415;47.870;16.058;2022-10-31T12:39:54;97811.25;;;16.77;78.99
49515;BME280;35415;47.870;16.058;2022-10-31T12:42:36;97837.50;;;16.87;79.21
49515;BME280;35415;47.870;16.058;2022-10-31T12:45:26;97828.31;;;16.83;79.57
49515;BME280;35415;47.870;16.058;2022-10-31T12:48:10;97834.09;;;16.76;79.76
49515;BME280;35415;47.870;16.058;2022-10-31T12:50:51;97836.81;;;16.76;79.96
49515;BME280;35415;47.870;16.058;2022-10-31T12:53:38;97842.84;;;16.73;80.32
49515;BME280;35415;47.870;16.058;2022-10-31T12:56:24;97826.13;;;16.61;80.33
49515;BME280;35415;47.870;16.058;2022-10-31T12:59:00;97846.19;;;16.65;80.35
49515;BME280;35415;47.870;16.058;2022-10-31T13:01:32;97833.19;;;16.62;80.02
49515;BME280;35415;47.870;16.058;2022-10-31T13:04:05;97838.41;;;16.59;79.98
49515;BME280;35415;47.870;16.058;2022-10-31T13:06:35;97791.09;;;16.22;80.28
49515;BME280;35415;47.870;16.058;2022-10-31T13:09:10;97808.81;;;16.38;80.42
49515;BME280;35415;47.870;16.058;2022-10-31T13:11:42;97832.31;;;16.48;80.42
49515;BME280;35415;47.870;16.058;2022-10-31T13:14:21;97823.03;;;16.30;80.49
49515;BME280;35415;47.870;16.058;2022-10-31T13:16:52;97782.97;;;15.98;80.42